Time;durP1;ratioP1;P1;durP2;ratioP2;P2;SDS_P1;SDS_P2;PMS_P1;PMS_P2;Temp;Humidity;BMP_temperature;BMP_pressure;BME280_temperature;BME280_humidity;BME280_pressure;Samples;Min_cycle;Max_cycle;Signal;HPM_P1;HPM_P2
2021/11/13 00:01:17;;;;;;;50.90;24.50;;;;;;;6.15;89.48;101015.52;88079;1281;97410;-78
2021/11/13 00:03:27;;;;;;;53.10;25.50;;;;;;;6.11;89.26;101013.88;88093;1288;87966;-73
2021/11/13 00:05:40;;;;;;;52.10;25.70;;;;;;;6.13;89.21;101005.55;88065;1291;94157;-72
2021/11/13 00:07:50;;;;;;;51.10;24.70;;;;;;;6.17;89.07;101004.43;88058;1288;80730;-73
2021/11/13 00:09:59;;;;;;;52.80;25.80;;;;;;;6.19;89.08;101007.37;88081;1288;82294;-73
2021/11/13 00:12:17;;;;;;;55.30;26.00;;;;;;;6.25;89.04;101009.90;88046;1291;97456;-73
2021/11/13 00:14:29;;;;;;;59.60;25.70;;;;;;;6.27;89.04;101006.27;88093;1291;89248;-74
2021/11/13 00:16:43;;;;;;;55.30;26.10;;;;;;;6.30;89.00;101008.84;88064;1288;94491;-74
2021/11/13 00:18:52;;;;;;;52.60;24.90;;;;;;;6.30;88.97;101013.46;88080;1288;80242;-73
2021/11/13 00:21:04;;;;;;;52.40;26.90;;;;;;;6.29;89.08;101013.98;88080;1288;80879;-74
2021/11/13 00:23:14;;;;;;;51.20;23.50;;;;;;;6.29;89.12;101016.61;88042;1291;97182;-72
2021/11/13 00:25:25;;;;;;;50.60;24.90;;;;;;;6.28;89.18;101016.90;88089;1288;89164;-73
2021/11/13 00:27:34;;;;;;;48.40;22.90;;;;;;;6.25;89.35;101011.80;88105;1291;95489;-73
2021/11/13 00:29:46;;;;;;;48.70;24.50;;;;;;;6.26;89.30;101012.66;88037;1290;80659;-74
2021/11/13 00:32:07;;;;;;;53.20;26.20;;;;;;;6.22;89.42;101011.23;87974;1288;81723;-75
2021/11/13 00:34:20;;;;;;;53.60;26.00;;;;;;;6.21;89.34;101007.01;88098;1285;99399;-76
2021/11/13 00:36:29;;;;;;;50.70;24.40;;;;;;;6.25;89.32;101008.30;88106;1281;86749;-74
2021/11/13 00:38:38;;;;;;;51.00;27.20;;;;;;;6.24;89.45;101010.30;88108;1281;95111;-75
2021/11/13 00:40:56;;;;;;;47.90;24.20;;;;;;;6.26;89.31;101007.66;88063;1291;82498;-76
2021/11/13 00:43:12;;;;;;;56.40;28.20;;;;;;;6.29;89.28;101011.07;88086;1289;82067;-73
2021/11/13 00:45:21;;;;;;;50.70;24.90;;;;;;;6.35;89.26;101014.50;88102;1285;99302;-72
2021/11/13 00:47:30;;;;;;;50.40;24.80;;;;;;;6.35;89.32;101010.09;88100;1285;88442;-71
2021/11/13 00:49:39;;;;;;;51.10;25.70;;;;;;;6.39;89.14;101007.85;88149;1281;94465;-71
2021/11/13 00:51:48;;;;;;;45.20;23.20;;;;;;;6.36;89.33;101001.77;88095;1285;79968;-72
2021/11/13 00:53:57;;;;;;;48.70;23.60;;;;;;;6.31;89.35;100996.23;88142;1289;82018;-73
2021/11/13 00:56:09;;;;;;;53.70;25.30;;;;;;;6.32;89.30;100994.88;88117;1291;97920;-73
2021/11/13 00:58:19;;;;;;;52.50;25.40;;;;;;;6.35;89.37;100998.70;88093;1284;89042;-73
2021/11/13 01:00:28;;;;;;;52.10;24.60;;;;;;;6.35;89.30;101003.73;88088;1285;94336;-72
2021/11/13 01:02:37;;;;;;;46.90;23.60;;;;;;;6.31;89.40;101002.45;88107;1285;81580;-74
2021/11/13 01:04:46;;;;;;;42.00;21.80;;;;;;;6.25;89.57;101004.64;88085;1284;80955;-73
2021/11/13 01:06:55;;;;;;;50.60;24.70;;;;;;;6.26;89.50;101010.15;88131;1291;99465;-72
2021/11/13 01:09:05;;;;;;;50.70;25.60;;;;;;;6.31;89.42;101006.97;88122;1285;88029;-71
2021/11/13 01:11:14;;;;;;;48.20;23.90;;;;;;;6.33;89.47;101005.83;88085;1285;94982;-71
2021/11/13 01:13:29;;;;;;;48.20;24.60;;;;;;;6.32;89.37;101006.11;88116;1285;79356;-71
2021/11/13 01:15:38;;;;;;;48.80;24.20;;;;;;;6.34;89.55;101003.29;88111;1283;82541;-72
2021/11/13 01:17:50;;;;;;;44.90;23.70;;;;;;;6.36;89.49;100995.59;88098;1282;95951;-72
2021/11/13 01:19:59;;;;;;;45.50;23.20;;;;;;;6.40;89.36;100994.23;88108;1285;88626;-72
2021/11/13 01:22:08;;;;;;;49.50;24.60;;;;;;;6.39;89.36;100987.92;88109;1285;94373;-72
2021/11/13 01:24:18;;;;;;;41.00;21.50;;;;;;;6.37;89.47;100976.83;88075;1291;82483;-72
2021/11/13 01:26:27;;;;;;;43.20;24.50;;;;;;;6.33;89.68;100971.02;88098;1288;83099;-70
2021/11/13 01:28:36;;;;;;;49.70;25.30;;;;;;;6.33;89.57;100965.45;88072;1287;99166;-74
2021/11/13 01:30:45;;;;;;;50.10;26.10;;;;;;;6.32;89.61;100962.09;88080;1285;88732;-73
2021/11/13 01:32:54;;;;;;;49.20;24.70;;;;;;;6.33;89.73;100962.39;88093;1289;93227;-72
2021/11/13 01:35:05;;;;;;;45.50;24.10;;;;;;;6.35;89.76;100958.63;88089;1285;78774;-72
2021/11/13 01:37:14;;;;;;;47.80;23.60;;;;;;;6.36;89.66;100964.64;88068;1288;83487;-73
2021/11/13 01:39:26;;;;;;;47.30;24.80;;;;;;;6.40;89.63;100961.05;88093;1281;98873;-73
2021/11/13 01:41:36;;;;;;;47.90;23.90;;;;;;;6.37;89.67;100961.11;88104;1283;88538;-73
2021/11/13 01:43:48;;;;;;;45.70;24.40;;;;;;;6.39;89.55;100958.06;88075;1289;95300;-75
2021/11/13 01:45:57;;;;;;;47.00;25.70;;;;;;;6.42;89.62;100956.11;88083;1285;82243;-72
2021/11/13 01:48:07;;;;;;;48.10;22.90;;;;;;;6.37;89.62;100957.14;88117;1291;82828;-74
2021/11/13 01:50:22;;;;;;;40.60;21.70;;;;;;;6.39;89.58;100953.92;88090;1285;97286;-72
2021/11/13 01:52:31;;;;;;;44.90;23.60;;;;;;;6.42;89.58;100952.03;88079;1285;89221;-71
2021/11/13 01:54:43;;;;;;;42.80;22.30;;;;;;;6.46;89.49;100952.56;88084;1284;93901;-71
2021/11/13 01:56:53;;;;;;;46.10;24.10;;;;;;;6.47;89.50;100955.43;88020;1283;81051;-72
2021/11/13 01:59:03;;;;;;;42.40;21.90;;;;;;;6.45;89.54;100958.49;88077;1286;81492;-72
2021/11/13 02:01:12;;;;;;;46.60;23.10;;;;;;;6.47;89.45;100952.24;88091;1285;97475;-75
2021/11/13 02:03:23;;;;;;;44.60;23.20;;;;;;;6.51;89.37;100955.92;88092;1285;87273;-75
2021/11/13 02:05:32;;;;;;;42.90;23.50;;;;;;;6.53;89.29;100953.95;88081;1287;95433;-75
2021/11/13 02:07:41;;;;;;;40.80;21.40;;;;;;;6.53;89.45;100950.20;88111;1285;79633;-73
2021/11/13 02:09:53;;;;;;;40.20;20.00;;;;;;;6.51;89.45;100943.09;88102;1285;81748;-73
2021/11/13 02:12:03;;;;;;;42.80;21.60;;;;;;;6.47;89.54;100944.21;88120;1281;98460;-74
2021/11/13 02:14:12;;;;;;;47.70;22.90;;;;;;;6.45;89.64;100944.27;88086;1288;88718;-74
2021/11/13 02:16:21;;;;;;;42.20;22.10;;;;;;;6.48;89.49;100942.48;88075;1291;94135;-73
2021/11/13 02:18:33;;;;;;;46.40;22.70;;;;;;;6.47;89.39;100939.60;88101;1284;80999;-71
2021/11/13 02:20:44;;;;;;;39.10;20.80;;;;;;;6.46;89.50;100940.59;88098;1291;80431;-72
2021/11/13 02:22:58;;;;;;;42.10;22.60;;;;;;;6.40;89.61;100929.20;88101;1288;98996;-72
2021/11/13 02:25:06;;;;;;;;;;;;;;;6.41;89.55;100925.44;88102;1291;87819;-72
2021/11/13 02:27:15;;;;;;;44.50;24.10;;;;;;;6.41;89.58;100928.33;88100;1282;93879;-72
2021/11/13 02:29:24;;;;;;;41.50;22.50;;;;;;;6.41;89.51;100934.56;88081;1285;80417;-72
2021/11/13 02:31:40;;;;;;;49.70;24.30;;;;;;;6.43;89.37;100933.48;88077;1284;83273;-73
2021/11/13 02:33:49;;;;;;;42.40;22.00;;;;;;;6.47;89.39;100934.55;88093;1285;97342;-73
2021/11/13 02:36:03;;;;;;;42.10;21.50;;;;;;;6.44;89.41;100931.11;88104;1285;88724;-73
2021/11/13 02:38:18;;;;;;;41.50;22.30;;;;;;;6.48;89.34;100925.34;88073;1285;94446;-72
2021/11/13 02:40:27;;;;;;;39.40;21.20;;;;;;;6.50;89.34;100927.23;88087;1285;81536;-72
2021/11/13 02:42:42;;;;;;;43.80;24.60;;;;;;;6.50;89.35;100924.09;88108;1285;80280;-72
2021/11/13 02:44:55;;;;;;;47.10;24.10;;;;;;;6.50;89.29;100922.95;88091;1285;97884;-71
2021/11/13 02:47:05;;;;;;;47.90;25.20;;;;;;;6.49;89.43;100919.98;88084;1285;88963;-71
2021/11/13 02:49:16;;;;;;;53.30;26.40;;;;;;;6.50;89.34;100923.52;88061;1287;95473;-71
2021/11/13 02:51:27;;;;;;;51.10;26.90;;;;;;;6.48;89.46;100922.09;88092;1281;82554;-70
2021/11/13 02:53:40;;;;;;;54.00;27.10;;;;;;;6.46;89.35;100921.03;88118;1282;82482;-72
2021/11/13 02:55:55;;;;;;;43.00;22.70;;;;;;;6.47;89.39;100922.38;88110;1285;96984;-71
2021/11/13 02:58:08;;;;;;;49.60;25.80;;;;;;;6.39;89.46;100922.42;88120;1285;88141;-71
2021/11/13 03:00:25;;;;;;;46.70;24.50;;;;;;;6.43;89.54;100924.91;88076;1285;94646;-71
2021/11/13 03:02:34;;;;;;;52.80;26.70;;;;;;;6.37;89.52;100924.05;88106;1285;80660;-72
2021/11/13 03:04:43;;;;;;;55.30;26.20;;;;;;;6.34;89.77;100921.71;88091;1281;82738;-72
2021/11/13 03:06:56;;;;;;;51.00;25.50;;;;;;;6.31;89.71;100919.30;88098;1284;99802;-71
2021/11/13 03:09:05;;;;;;;59.90;28.50;;;;;;;6.29;89.70;100915.73;88074;1287;88789;-70
2021/11/13 03:11:15;;;;;;;56.50;28.30;;;;;;;6.29;89.80;100915.02;88091;1285;95131;-71
2021/11/13 03:13:29;;;;;;;52.30;27.90;;;;;;;6.27;89.68;100916.86;88094;1273;79120;-73
2021/11/13 03:15:38;;;;;;;56.80;27.60;;;;;;;6.23;89.75;100919.60;88100;1287;82269;-73
2021/11/13 03:17:51;;;;;;;57.40;27.30;;;;;;;6.21;89.79;100916.52;88063;1284;99145;-72
2021/11/13 03:20:00;;;;;;;59.20;28.10;;;;;;;6.25;89.57;100914.77;88097;1285;87162;-72
2021/11/13 03:22:12;;;;;;;57.40;29.70;;;;;;;6.27;89.63;100917.41;88052;1289;94999;-73
2021/11/13 03:24:29;;;;;;;62.40;28.70;;;;;;;6.25;89.60;100917.23;88089;1284;81709;-73
2021/11/13 03:26:42;;;;;;;63.80;30.30;;;;;;;6.23;89.73;100918.84;88104;1291;80464;-73
2021/11/13 03:28:59;;;;;;;62.00;30.70;;;;;;;6.24;89.65;100917.82;88088;1285;99289;-74
2021/11/13 03:31:08;;;;;;;70.90;32.20;;;;;;;6.25;89.72;100918.70;88089;1285;88784;-72
2021/11/13 03:33:22;;;;;;;63.80;28.80;;;;;;;6.22;89.79;100924.67;88097;1281;94865;-72
2021/11/13 03:35:32;;;;;;;67.00;30.50;;;;;;;6.24;89.60;100920.56;88108;1288;83026;-70
2021/11/13 03:37:41;;;;;;;63.90;30.80;;;;;;;6.23;89.71;100922.76;88084;1286;81931;-71
2021/11/13 03:39:50;;;;;;;67.40;31.20;;;;;;;6.23;89.66;100921.86;88076;1290;97962;-71
2021/11/13 03:41:59;;;;;;;72.40;32.80;;;;;;;6.27;89.56;100922.55;88143;1283;87207;-73
2021/11/13 03:44:08;;;;;;;64.70;30.00;;;;;;;6.25;89.75;100915.44;88100;1281;93478;-74
2021/11/13 03:46:19;;;;;;;64.00;30.20;;;;;;;6.25;89.69;100908.23;88063;1286;82432;-75
2021/11/13 03:48:31;;;;;;;70.20;32.30;;;;;;;6.23;89.76;100905.59;88089;1287;82576;-71
2021/11/13 03:50:40;;;;;;;74.30;32.20;;;;;;;6.24;89.73;100906.23;88093;1281;96131;-72
2021/11/13 03:52:52;;;;;;;61.00;29.90;;;;;;;6.21;89.85;100910.45;88065;1287;88869;-72
2021/11/13 03:55:01;;;;;;;66.10;32.30;;;;;;;6.23;89.72;100909.21;88081;1281;95831;-72
2021/11/13 03:57:11;;;;;;;50.50;24.30;;;;;;;6.20;89.70;100910.55;88110;1287;80382;-75
2021/11/13 03:59:23;;;;;;;66.80;31.50;;;;;;;6.16;89.81;100902.95;88106;1285;80263;-72
2021/11/13 04:01:35;;;;;;;64.40;29.80;;;;;;;6.14;90.00;100896.86;88091;1285;98692;-73
2021/11/13 04:03:47;;;;;;;63.80;30.00;;;;;;;6.13;90.02;100893.80;88114;1285;88971;-71
2021/11/13 04:05:56;;;;;;;61.70;29.90;;;;;;;6.06;90.01;100891.16;88058;1288;95639;-71
2021/11/13 04:08:06;;;;;;;60.40;28.60;;;;;;;6.10;89.95;100889.01;88128;1284;81097;-71
2021/11/13 04:10:17;;;;;;;62.40;26.90;;;;;;;6.13;89.95;100899.12;88118;1284;80031;-71
2021/11/13 04:12:26;;;;;;;65.20;30.00;;;;;;;6.11;90.01;100896.05;88068;1287;98627;-71
2021/11/13 04:14:35;;;;;;;67.60;31.70;;;;;;;6.16;89.98;100887.87;88123;1285;87788;-73
2021/11/13 04:16:50;;;;;;;63.90;30.60;;;;;;;6.16;89.87;100886.84;88081;1287;93288;-73
2021/11/13 04:18:59;;;;;;;57.90;26.40;;;;;;;6.17;89.71;100888.45;88071;1287;79247;-74
2021/11/13 04:21:08;;;;;;;58.40;27.90;;;;;;;6.12;90.05;100890.46;88124;1285;81880;-73
2021/11/13 04:23:17;;;;;;;61.90;28.40;;;;;;;6.07;90.04;100893.84;88115;1281;96160;-72
2021/11/13 04:25:28;;;;;;;54.70;27.60;;;;;;;6.07;89.92;100893.22;88088;1285;88596;-73
2021/11/13 04:27:37;;;;;;;60.70;29.00;;;;;;;6.09;89.93;100887.23;88088;1273;92840;-72
2021/11/13 04:29:46;;;;;;;64.10;30.00;;;;;;;6.08;89.90;100874.05;88082;1285;82012;-72
2021/11/13 04:31:55;;;;;;;59.50;28.90;;;;;;;6.09;89.96;100867.36;88083;1285;82258;-73
2021/11/13 04:34:07;;;;;;;70.40;31.70;;;;;;;6.06;90.04;100868.50;88090;1288;98917;-73
2021/11/13 04:36:21;;;;;;;66.20;31.30;;;;;;;6.04;90.15;100869.95;88098;1288;89073;-74
2021/11/13 04:38:34;;;;;;;70.00;32.00;;;;;;;6.06;89.99;100875.98;88059;1287;96160;-73
2021/11/13 04:40:44;;;;;;;58.10;29.80;;;;;;;6.05;90.00;100881.69;88057;1288;81759;-73
2021/11/13 04:42:53;;;;;;;62.80;30.40;;;;;;;6.02;90.11;100890.23;88152;1284;80823;-72
2021/11/13 04:45:02;;;;;;;64.60;31.40;;;;;;;6.01;90.14;100888.68;88115;1284;96848;-73
2021/11/13 04:47:11;;;;;;;61.50;30.90;;;;;;;6.03;90.00;100884.18;88126;1284;87835;-72
2021/11/13 04:49:22;;;;;;;66.10;31.50;;;;;;;6.05;90.03;100883.23;88087;1288;95221;-71
2021/11/13 04:51:34;;;;;;;71.30;34.70;;;;;;;6.05;90.08;100886.34;88092;1284;81743;-74
2021/11/13 04:53:46;;;;;;;65.90;31.80;;;;;;;6.05;90.05;100887.05;88161;1284;82243;-74
2021/11/13 04:55:58;;;;;;;58.50;29.30;;;;;;;6.03;90.22;100887.06;88097;1285;97420;-75
2021/11/13 04:58:08;;;;;;;60.30;31.10;;;;;;;5.96;90.29;100887.54;87930;1285;205240;-71
2021/11/13 05:00:22;;;;;;;59.30;31.50;;;;;;;5.93;90.20;100882.08;88080;1287;95558;-72
2021/11/13 05:02:34;;;;;;;51.60;26.30;;;;;;;5.98;90.19;100880.76;88122;1285;81273;-72
2021/11/13 05:04:43;;;;;;;67.50;33.20;;;;;;;5.97;90.28;100882.23;88119;1287;81459;-71
2021/11/13 05:06:51;;;;;;;63.90;31.50;;;;;;;5.95;90.17;100883.30;88060;1287;99190;-71
2021/11/13 05:09:01;;;;;;;67.10;31.70;;;;;;;5.97;90.16;100884.63;88091;1284;87793;-72
2021/11/13 05:11:10;;;;;;;66.40;33.10;;;;;;;5.96;90.20;100886.23;88077;1288;93696;-72
2021/11/13 05:13:19;;;;;;;63.30;33.60;;;;;;;5.99;90.00;100886.90;88078;1285;82840;-72
2021/11/13 05:15:31;;;;;;;65.00;34.00;;;;;;;6.02;90.06;100888.23;88075;1282;82277;-71
2021/11/13 05:17:41;;;;;;;66.50;33.80;;;;;;;6.02;90.03;100898.92;88145;1281;96503;-75
2021/11/13 05:19:53;;;;;;;68.10;35.10;;;;;;;6.02;89.97;100903.24;88086;1290;88062;-74
2021/11/13 05:22:02;;;;;;;66.70;34.00;;;;;;;6.02;90.05;100902.70;88114;1285;95016;-72
2021/11/13 05:24:13;;;;;;;64.80;33.00;;;;;;;6.01;90.04;100899.38;88131;1285;80487;-73
2021/11/13 05:26:22;;;;;;;63.90;32.10;;;;;;;6.03;89.87;100892.77;88090;1287;82616;-72
2021/11/13 05:28:32;;;;;;;62.10;31.80;;;;;;;6.05;89.92;100883.84;88083;1287;99550;-74
2021/11/13 05:30:41;;;;;;;67.80;31.90;;;;;;;6.03;90.10;100881.82;88105;1287;87987;-73
2021/11/13 05:32:50;;;;;;;66.00;32.40;;;;;;;6.05;89.89;100882.05;88130;1284;95854;-73
2021/11/13 05:34:59;;;;;;;65.40;32.50;;;;;;;6.05;89.86;100883.78;88060;1290;82240;-73
2021/11/13 05:37:08;;;;;;;56.90;30.00;;;;;;;6.07;89.90;100882.75;88096;1280;80460;-76
2021/11/13 05:39:20;;;;;;;58.90;31.50;;;;;;;6.10;89.80;100880.14;88083;1281;98304;-73
2021/11/13 05:41:29;;;;;;;53.50;29.10;;;;;;;6.07;89.95;100879.67;88077;1285;86754;-72
2021/11/13 05:43:38;;;;;;;58.60;29.60;;;;;;;6.07;89.78;100879.88;88041;1287;94319;-71
2021/11/13 05:45:51;;;;;;;54.50;29.70;;;;;;;6.08;89.80;100882.77;88082;1288;82230;-72
2021/11/13 05:48:03;;;;;;;52.90;28.30;;;;;;;6.06;89.81;100884.59;88115;1287;82327;-73
2021/11/13 05:50:15;;;;;;;58.80;30.50;;;;;;;6.09;89.83;100878.08;88068;1284;96244;-73
2021/11/13 05:52:24;;;;;;;60.20;32.10;;;;;;;6.07;89.88;100888.96;88101;1288;88587;-66
2021/11/13 05:54:33;;;;;;;57.90;30.80;;;;;;;6.03;89.85;100897.37;88052;1288;94377;-67
2021/11/13 05:56:46;;;;;;;61.20;31.70;;;;;;;6.07;89.82;100895.05;88059;1275;79105;-67
2021/11/13 05:58:58;;;;;;;54.40;29.70;;;;;;;6.07;89.77;100890.20;88019;1287;83027;-67
2021/11/13 06:01:07;;;;;;;60.60;30.60;;;;;;;6.07;89.79;100884.90;88016;1287;99772;-66
2021/11/13 06:03:16;;;;;;;62.20;32.10;;;;;;;6.07;89.91;100884.35;88097;1282;88145;-76
2021/11/13 06:05:25;;;;;;;62.60;35.70;;;;;;;6.08;89.69;100886.21;88063;1287;95587;-77
2021/11/13 06:07:35;;;;;;;66.20;35.00;;;;;;;6.07;89.78;100889.13;88079;1287;79305;-76
2021/11/13 06:09:44;;;;;;;66.70;37.30;;;;;;;6.09;89.66;100886.08;88119;1288;80623;-76
2021/11/13 06:11:53;;;;;;;54.40;32.50;;;;;;;6.11;89.67;100889.27;88062;1288;97615;-76
2021/11/13 06:14:02;;;;;;;55.70;32.50;;;;;;;6.10;89.76;100888.52;88108;1282;88359;-76
2021/11/13 06:16:12;;;;;;;60.30;33.90;;;;;;;6.12;89.63;100881.99;88089;1286;94935;-76
2021/11/13 06:18:21;;;;;;;57.10;31.60;;;;;;;6.20;89.49;100878.73;88065;1287;79376;-69
2021/11/13 06:20:30;;;;;;;57.20;32.80;;;;;;;6.23;89.65;100877.42;88076;1282;82427;-68
2021/11/13 06:22:39;;;;;;;61.60;34.40;;;;;;;6.25;89.45;100887.67;88077;1283;98754;-70
2021/11/13 06:24:48;;;;;;;62.80;31.70;;;;;;;6.27;89.51;100905.59;88086;1287;89367;-69
2021/11/13 06:26:57;;;;;;;65.60;33.20;;;;;;;6.27;89.44;100918.31;88032;1283;94747;-78
2021/11/13 06:29:07;;;;;;;59.60;32.20;;;;;;;6.31;89.40;100919.64;88084;1282;79960;-79
2021/11/13 06:31:16;;;;;;;61.90;32.90;;;;;;;6.37;89.31;100922.87;88080;1287;83157;-79
2021/11/13 06:33:28;;;;;;;61.80;33.70;;;;;;;6.42;89.29;100929.70;88082;1287;99429;-70
2021/11/13 06:35:40;;;;;;;62.90;35.30;;;;;;;6.41;89.19;100933.68;88090;1282;89023;-68
2021/11/13 06:37:50;;;;;;;64.50;35.00;;;;;;;6.43;89.18;100927.60;88042;1287;95612;-68
2021/11/13 06:39:59;;;;;;;68.60;34.90;;;;;;;6.44;89.07;100922.08;88071;1282;80484;-67
2021/11/13 06:42:09;;;;;;;64.30;36.70;;;;;;;6.41;89.09;100920.78;88082;1282;82481;-79
2021/11/13 06:44:19;;;;;;;71.60;40.80;;;;;;;6.40;88.97;100920.54;88091;1287;99275;-76
2021/11/13 06:46:32;;;;;;;63.40;34.30;;;;;;;6.44;89.04;100922.83;88089;1287;87694;-75
2021/11/13 06:48:41;;;;;;;63.60;34.60;;;;;;;6.46;89.00;100914.95;88032;1287;95744;-68
2021/11/13 06:50:54;;;;;;;65.50;34.10;;;;;;;6.43;88.87;100918.25;88101;1287;82129;-70
2021/11/13 06:53:07;;;;;;;68.40;34.10;;;;;;;6.42;88.85;100921.42;88100;1286;79820;-78
2021/11/13 06:55:17;;;;;;;62.50;33.50;;;;;;;6.42;88.89;100924.86;88062;1288;99380;-78
2021/11/13 06:57:27;;;;;;;64.80;31.30;;;;;;;6.47;88.94;100928.61;88116;1287;89319;-69
2021/11/13 06:59:39;;;;;;;63.40;33.70;;;;;;;6.48;88.91;100931.27;88093;1287;95200;-70
2021/11/13 07:01:48;;;;;;;59.60;32.10;;;;;;;6.43;88.84;100928.30;88017;1285;81251;-73
2021/11/13 07:03:57;;;;;;;62.10;33.40;;;;;;;6.47;88.80;100928.45;88107;1286;83303;-78
2021/11/13 07:06:10;;;;;;;56.30;30.50;;;;;;;6.47;88.76;100933.63;88073;1288;98353;-79
2021/11/13 07:08:22;;;;;;;60.00;33.10;;;;;;;6.46;88.59;100937.20;88084;1287;88904;-78
2021/11/13 07:10:31;;;;;;;59.90;32.60;;;;;;;6.47;88.68;100931.88;88096;1284;93614;-77
2021/11/13 07:12:42;;;;;;;60.70;31.60;;;;;;;6.51;88.53;100937.05;88098;1288;81372;-77
2021/11/13 07:14:51;;;;;;;63.00;33.50;;;;;;;6.48;88.51;100930.64;88013;1287;82319;-76
2021/11/13 07:17:03;;;;;;;59.00;33.50;;;;;;;6.46;88.55;100923.20;87911;1290;98675;-68
2021/11/13 07:19:19;;;;;;;66.70;36.40;;;;;;;6.46;88.55;100918.86;88058;1287;87038;-68
2021/11/13 07:21:28;;;;;;;64.50;32.50;;;;;;;6.47;88.54;100914.42;88062;1285;94857;-68
2021/11/13 07:23:38;;;;;;;57.30;32.70;;;;;;;6.48;88.58;100913.73;88076;1287;81477;-76
2021/11/13 07:25:51;;;;;;;60.40;31.90;;;;;;;6.48;88.54;100932.25;88125;1285;79913;-76
2021/11/13 07:28:12;;;;;;;61.00;34.10;;;;;;;6.50;88.56;100934.02;88084;1284;97999;-77
2021/11/13 07:30:34;;;;;;;61.70;32.30;;;;;;;6.57;88.46;100925.55;88130;1288;88062;-74
2021/11/13 07:32:45;;;;;;;59.60;31.20;;;;;;;6.58;88.46;100918.64;88106;1282;93645;-71
2021/11/13 07:34:58;;;;;;;63.70;33.30;;;;;;;6.59;88.51;100915.50;88086;1284;82759;-72
2021/11/13 07:37:09;;;;;;;;;;;;;;;6.64;88.50;100914.29;88129;1280;82603;-73
2021/11/13 07:39:21;;;;;;;64.60;34.50;;;;;;;6.69;88.53;100918.03;88102;1281;97352;-74
2021/11/13 07:41:31;;;;;;;65.70;34.20;;;;;;;6.71;88.44;100913.72;88104;1285;88807;-74
2021/11/13 07:43:40;;;;;;;65.30;34.80;;;;;;;6.73;88.33;100898.17;88103;1285;95007;-73
2021/11/13 07:45:49;;;;;;;64.40;35.10;;;;;;;6.79;88.27;100888.98;88103;1285;79690;-72
2021/11/13 07:47:59;;;;;;;64.40;34.30;;;;;;;6.76;88.21;100881.52;88124;1287;79933;-72
2021/11/13 07:50:14;;;;;;;68.90;36.80;;;;;;;6.80;88.23;100881.02;88105;1283;97415;-73
2021/11/13 07:52:27;;;;;;;67.30;35.10;;;;;;;6.81;88.16;100882.54;88111;1282;88699;-74
2021/11/13 07:54:38;;;;;;;65.70;34.50;;;;;;;6.87;88.15;100882.43;88099;1284;94887;-76
2021/11/13 07:56:51;;;;;;;72.00;37.80;;;;;;;6.86;88.02;100887.92;88050;1287;81488;-73
2021/11/13 07:59:03;;;;;;;71.40;38.60;;;;;;;6.87;87.97;100881.19;88082;1288;82401;-71
2021/11/13 08:01:16;;;;;;;66.30;35.80;;;;;;;6.88;87.96;100879.73;88127;1288;99186;-71
2021/11/13 08:03:29;;;;;;;67.00;35.80;;;;;;;6.91;87.90;100882.38;88134;1288;87847;-74
2021/11/13 08:05:38;;;;;;;77.20;38.70;;;;;;;6.94;87.86;100879.52;88104;1284;94447;-71
2021/11/13 08:07:51;;;;;;;71.80;37.10;;;;;;;7.00;87.74;100878.05;88057;1282;80419;-73
2021/11/13 08:10:00;;;;;;;78.90;38.40;;;;;;;7.09;87.72;100878.86;88077;1287;79546;-72
2021/11/13 08:12:13;;;;;;;73.80;37.50;;;;;;;7.11;87.66;100878.17;88116;1285;99069;-71
2021/11/13 08:14:22;;;;;;;74.20;37.40;;;;;;;7.20;87.57;100874.73;88103;1283;88137;-72
2021/11/13 08:16:35;;;;;;;75.60;37.90;;;;;;;7.30;87.56;100880.34;88119;1284;93303;-74
2021/11/13 08:18:46;;;;;;;77.90;37.40;;;;;;;7.29;87.13;100882.02;88083;1288;82947;-73
2021/11/13 08:20:56;;;;;;;77.60;37.70;;;;;;;7.34;87.12;100878.48;88096;1281;82168;-73
2021/11/13 08:23:09;;;;;;;74.70;36.80;;;;;;;7.37;87.17;100877.44;88125;1285;97161;-73
2021/11/13 08:25:18;;;;;;;72.10;36.60;;;;;;;7.41;87.13;100872.19;88078;1287;87868;-71
2021/11/13 08:27:30;;;;;;;78.30;37.30;;;;;;;7.48;87.01;100868.27;88122;1284;93250;-74
2021/11/13 08:29:39;;;;;;;68.80;35.10;;;;;;;7.56;86.97;100866.72;88064;1285;80285;-71
2021/11/13 08:31:48;;;;;;;75.70;37.80;;;;;;;7.62;86.58;100872.36;88106;1291;82418;-71
2021/11/13 08:33:57;;;;;;;76.60;39.10;;;;;;;7.57;86.02;100869.23;88100;1285;97481;-72
2021/11/13 08:36:07;;;;;;;75.50;37.70;;;;;;;7.55;86.16;100874.08;88126;1284;88166;-75
2021/11/13 08:38:19;;;;;;;73.70;36.60;;;;;;;7.59;86.28;100875.27;88105;1284;94195;-73
2021/11/13 08:40:31;;;;;;;78.60;39.10;;;;;;;7.60;85.92;100874.88;88095;1284;80141;-72
2021/11/13 08:42:41;;;;;;;75.30;36.80;;;;;;;7.54;85.50;100875.30;88089;1288;81741;-74
2021/11/13 08:44:53;;;;;;;69.00;35.60;;;;;;;7.54;85.72;100872.48;88088;1287;98729;-73
2021/11/13 08:47:01;;;;;;;70.50;38.40;;;;;;;7.61;85.84;100870.59;88073;1280;86276;-75
2021/11/13 08:49:11;;;;;;;69.90;35.50;;;;;;;7.67;85.83;100878.92;88075;1287;95510;-73
2021/11/13 08:51:20;;;;;;;78.70;37.90;;;;;;;7.70;85.81;100875.20;88059;1287;79922;-76
2021/11/13 08:53:29;;;;;;;73.20;36.20;;;;;;;7.79;85.78;100871.32;88131;1285;80585;-73
2021/11/13 08:55:43;;;;;;;68.20;36.00;;;;;;;7.84;85.54;100871.65;88107;1284;98211;-74
2021/11/13 08:57:54;;;;;;;78.30;39.00;;;;;;;7.82;85.28;100873.52;88108;1288;89027;-75
2021/11/13 09:00:04;;;;;;;74.00;38.20;;;;;;;7.83;85.34;100877.73;88087;1283;96375;-71
2021/11/13 09:02:20;;;;;;;73.40;38.10;;;;;;;7.85;85.28;100879.05;88065;1287;78679;-72
2021/11/13 09:04:30;;;;;;;74.00;38.40;;;;;;;7.81;84.92;100879.16;88119;1285;82371;-72
2021/11/13 09:06:39;;;;;;;75.00;39.10;;;;;;;7.74;84.75;100881.77;88114;1284;98461;-72
2021/11/13 09:08:54;;;;;;;73.20;38.70;;;;;;;7.71;84.80;100879.27;88105;1285;87377;-71
2021/11/13 09:11:03;;;;;;;71.50;38.30;;;;;;;7.66;84.83;100881.50;88114;1285;96099;-77
2021/11/13 09:13:14;;;;;;;71.70;37.50;;;;;;;7.69;84.93;100879.84;88051;1283;82183;-74
2021/11/13 09:15:26;;;;;;;77.60;40.90;;;;;;;7.67;84.55;100879.66;88095;1286;82993;-75
2021/11/13 09:17:37;;;;;;;76.80;40.40;;;;;;;7.62;84.46;100880.60;88103;1281;97692;-79
2021/11/13 09:19:47;;;;;;;71.90;38.50;;;;;;;7.59;84.52;100876.61;88075;1282;88242;-78
2021/11/13 09:22:00;;;;;;;75.50;39.70;;;;;;;7.60;84.64;100877.36;88092;1282;94929;-81
2021/11/13 09:24:13;;;;;;;69.50;37.80;;;;;;;7.61;84.62;100864.92;88080;1284;79523;-81
2021/11/13 09:26:22;;;;;;;74.60;40.90;;;;;;;7.60;84.56;100847.22;88108;1283;80892;-77
2021/11/13 09:28:32;;;;;;;76.40;38.30;;;;;;;7.58;84.32;100834.60;88120;1280;97136;-72
2021/11/13 09:30:43;;;;;;;76.70;38.70;;;;;;;7.55;84.40;100834.88;88098;1280;88033;-73
2021/11/13 09:32:54;;;;;;;74.90;39.30;;;;;;;7.58;84.30;100831.48;88070;1287;93843;-71
2021/11/13 09:35:05;;;;;;;80.40;42.90;;;;;;;7.63;84.35;100837.21;88115;1280;79373;-72
2021/11/13 09:37:14;;;;;;;79.60;39.80;;;;;;;7.71;84.40;100845.02;88108;1284;81478;-76
2021/11/13 09:39:24;;;;;;;77.00;39.50;;;;;;;7.81;84.43;100832.73;88113;1285;98766;-70
2021/11/13 09:41:34;;;;;;;73.80;39.40;;;;;;;7.91;84.20;100835.41;88117;1284;85972;-68
2021/11/13 09:43:44;;;;;;;77.50;41.80;;;;;;;7.87;83.65;100830.98;88078;1283;93983;-74
2021/11/13 09:45:56;;;;;;;75.30;40.10;;;;;;;7.90;83.79;100823.14;88111;1285;78837;-76
2021/11/13 09:48:07;;;;;;;77.00;40.40;;;;;;;7.98;84.08;100835.14;88070;1284;80516;-76
2021/11/13 09:50:19;;;;;;;75.10;40.60;;;;;;;8.01;83.70;100833.25;88124;1280;95918;-75
2021/11/13 09:52:29;;;;;;;73.30;40.50;;;;;;;8.05;83.52;100835.15;88120;1277;86052;-75
2021/11/13 09:54:39;;;;;;;67.00;37.90;;;;;;;8.06;83.40;100837.33;88083;1283;93523;-76
2021/11/13 09:56:49;;;;;;;74.90;42.70;;;;;;;8.02;82.95;100830.73;88130;1285;77474;-75
2021/11/13 09:59:01;;;;;;;76.80;41.40;;;;;;;8.04;82.73;100833.48;88118;1282;80573;-75
2021/11/13 10:01:11;;;;;;;73.30;41.50;;;;;;;8.06;83.04;100825.91;88103;1287;98749;-74